Terminal Aerodrome Forecast
Issued by NWS

Home | Current Version | Previous Version | Text Only | Print | Product List | Glossary On
Versions: 1 2 3 4 5 6 7 8 9 10 11 12 13 14 15 16 17 18
651
FTUS46 KMTR 271846 AAA
TAFOAK
TAF AMD
KOAK 271846Z 2719/2824 27012KT P6SM OVC014
     FM271930 27012KT P6SM FEW020
     FM272100 28017KT P6SM FEW020
     FM280500 28010KT P6SM OVC007
     FM281000 27008KT P6SM OVC005
     FM281730 26006KT P6SM SCT014
     FM282000 29012KT P6SM FEW020=

USA.gov is the U.S. government's official web portal to all federal, state and local government web resources and services.